Time;durP1;ratioP1;P1;durP2;ratioP2;P2;SDS_P1;SDS_P2;PMS_P1;PMS_P2;Temp;Humidity;BMP_temperature;BMP_pressure;BME280_temperature;BME280_humidity;BME280_pressure;Samples;Min_cycle;Max_cycle;Signal;HPM_P1;HPM_P2
2020/12/22 00:01:39;;;;;;;;;;;21.50;49.80;;;;;;5072287;28;1298;-66
2020/12/22 00:04:05;;;;;;;;;;;21.50;49.90;;;;;;5072187;28;1917;-65
2020/12/22 00:06:30;;;;;;;;;;;21.50;50.00;;;;;;5075946;28;1113;-66
2020/12/22 00:08:56;;;;;;;;;;;21.50;50.00;;;;;;5075842;28;1119;-66
2020/12/22 00:11:21;;;;;;;;;;;21.40;50.00;;;;;;5076226;28;1106;-66
2020/12/22 00:13:47;;;;;;;;;;;21.40;50.10;;;;;;5074983;28;1370;-65
2020/12/22 00:16:12;;;;;;;;;;;21.40;50.10;;;;;;5075680;28;1083;-66
2020/12/22 00:18:37;;;;;;;;;;;21.40;50.10;;;;;;5075608;28;1345;-66
2020/12/22 00:21:03;;;;;;;;;;;21.40;50.20;;;;;;5075767;28;1189;-66
2020/12/22 00:23:28;;;;;;;;;;;21.40;50.20;;;;;;5074729;28;1905;-66
2020/12/22 00:25:54;;;;;;;;;;;21.30;50.20;;;;;;5074477;28;1354;-65
2020/12/22 00:28:19;;;;;;;;;;;21.30;50.30;;;;;;5074117;28;1302;-65
2020/12/22 00:30:45;;;;;;;;;;;21.30;50.30;;;;;;5075339;28;1303;-65
2020/12/22 00:33:10;;;;;;;;;;;21.30;50.40;;;;;;5074702;28;2460;-65
2020/12/22 00:35:36;;;;;;;;;;;21.30;50.40;;;;;;5074713;28;1158;-65
2020/12/22 00:38:01;;;;;;;;;;;21.30;50.50;;;;;;5075260;28;1300;-65
2020/12/22 00:40:27;;;;;;;;;;;21.20;50.40;;;;;;5075358;28;1126;-65
2020/12/22 00:42:53;;;;;;;;;;;21.20;50.50;;;;;;5075323;28;1415;-65
2020/12/22 00:45:19;;;;;;;;;;;21.20;50.50;;;;;;5074593;28;1950;-65
2020/12/22 00:47:45;;;;;;;;;;;21.20;50.50;;;;;;5075340;28;1346;-65
2020/12/22 00:50:10;;;;;;;;;;;21.20;50.60;;;;;;5074893;28;1374;-65
2020/12/22 00:52:36;;;;;;;;;;;21.20;50.70;;;;;;5074735;28;1405;-65
2020/12/22 00:55:01;;;;;;;;;;;21.10;50.60;;;;;;5070421;28;1373;-65
2020/12/22 00:57:26;;;;;;;;;;;21.10;50.70;;;;;;5072644;28;1077;-65
2020/12/22 00:59:52;;;;;;;;;;;21.10;50.70;;;;;;5074791;28;1329;-65
2020/12/22 01:02:17;;;;;;;;;;;21.10;50.80;;;;;;5074907;28;1305;-65
2020/12/22 01:04:43;;;;;;;;;;;21.10;50.80;;;;;;5073972;28;1969;-65
2020/12/22 01:07:08;;;;;;;;;;;21.10;50.90;;;;;;5074142;28;1358;-65
2020/12/22 01:09:34;;;;;;;;;;;21.10;50.90;;;;;;5074730;28;1115;-65
2020/12/22 01:11:59;;;;;;;;;;;21.00;50.90;;;;;;5074499;28;1280;-65
2020/12/22 01:14:25;;;;;;;;;;;21.00;50.90;;;;;;5074077;28;1417;-66
2020/12/22 01:16:53;;;;;;;;;;;21.00;51.00;;;;;;5074070;28;1259;-65
2020/12/22 01:19:18;;;;;;;;;;;21.00;51.00;;;;;;5074712;28;1375;-65
2020/12/22 01:21:44;;;;;;;;;;;21.00;51.00;;;;;;5074584;28;1555;-65
2020/12/22 01:24:09;;;;;;;;;;;21.00;51.10;;;;;;5073626;28;1898;-65
2020/12/22 01:26:35;;;;;;;;;;;21.00;51.10;;;;;;5073565;28;1201;-66
2020/12/22 01:29:00;;;;;;;;;;;21.00;51.10;;;;;;5074603;28;1079;-65
2020/12/22 01:31:26;;;;;;;;;;;21.00;51.20;;;;;;5090293;28;1293;-66
2020/12/22 01:33:52;;;;;;;;;;;21.00;51.20;;;;;;5074086;28;1380;-65
2020/12/22 01:36:18;;;;;;;;;;;20.90;51.20;;;;;;5073505;28;1303;-65
2020/12/22 01:38:43;;;;;;;;;;;20.90;51.20;;;;;;5073848;28;1361;-65
2020/12/22 01:41:09;;;;;;;;;;;20.90;51.30;;;;;;5074262;28;1321;-65
2020/12/22 01:43:34;;;;;;;;;;;20.90;51.30;;;;;;5073380;28;1933;-65
2020/12/22 01:46:00;;;;;;;;;;;20.90;51.30;;;;;;5073392;28;1274;-65
2020/12/22 01:48:26;;;;;;;;;;;20.90;51.40;;;;;;5074066;28;1346;-65
2020/12/22 01:50:51;;;;;;;;;;;20.90;51.40;;;;;;5076053;28;1239;-65
2020/12/22 01:53:17;;;;;;;;;;;20.90;51.40;;;;;;5073613;28;2044;-65
2020/12/22 01:55:42;;;;;;;;;;;20.80;51.40;;;;;;5066032;28;1354;-66
2020/12/22 01:58:08;;;;;;;;;;;20.80;51.40;;;;;;5074328;28;1106;-66
2020/12/22 02:00:33;;;;;;;;;;;20.80;51.50;;;;;;5073848;28;1107;-65
2020/12/22 02:02:59;;;;;;;;;;;20.80;51.50;;;;;;5073288;28;1369;-65
2020/12/22 02:05:24;;;;;;;;;;;20.80;51.50;;;;;;5088168;28;1957;-65
2020/12/22 02:07:50;;;;;;;;;;;20.80;51.60;;;;;;5071793;28;1315;-65
2020/12/22 02:10:15;;;;;;;;;;;20.80;51.60;;;;;;5073319;28;1514;-65
2020/12/22 02:12:41;;;;;;;;;;;20.80;51.60;;;;;;5073719;28;1082;-65
2020/12/22 02:15:08;;;;;;;;;;;20.80;51.60;;;;;;5073196;28;1421;-66
2020/12/22 02:17:34;;;;;;;;;;;20.80;51.70;;;;;;5073436;28;1266;-65
2020/12/22 02:19:59;;;;;;;;;;;20.70;51.70;;;;;;5073318;28;1429;-65
2020/12/22 02:22:25;;;;;;;;;;;20.80;51.70;;;;;;5073480;28;1130;-65
2020/12/22 02:24:50;;;;;;;;;;;20.70;51.70;;;;;;5073111;28;1963;-65
2020/12/22 02:27:16;;;;;;;;;;;20.70;51.70;;;;;;5072295;28;1357;-65
2020/12/22 02:29:41;;;;;;;;;;;20.70;51.70;;;;;;5073211;28;1336;-66
2020/12/22 02:32:07;;;;;;;;;;;20.70;51.80;;;;;;5073260;28;1278;-66
2020/12/22 02:34:32;;;;;;;;;;;20.70;51.80;;;;;;5072587;28;1300;-65
2020/12/22 02:36:58;;;;;;;;;;;20.70;51.80;;;;;;5073013;28;1247;-66
2020/12/22 02:39:23;;;;;;;;;;;20.70;51.90;;;;;;5072134;28;1361;-65
2020/12/22 02:41:48;;;;;;;;;;;20.70;51.90;;;;;;5073329;28;1405;-66
2020/12/22 02:44:14;;;;;;;;;;;20.70;51.90;;;;;;5087948;28;1921;-65
2020/12/22 02:46:39;;;;;;;;;;;20.70;51.90;;;;;;5072541;28;1318;-65
2020/12/22 02:49:05;;;;;;;;;;;20.70;51.90;;;;;;5072408;28;1184;-65
2020/12/22 02:51:31;;;;;;;;;;;20.60;51.90;;;;;;5072869;28;1267;-65
2020/12/22 02:53:56;;;;;;;;;;;20.70;52.00;;;;;;5072003;28;1356;-65
2020/12/22 02:56:22;;;;;;;;;;;20.70;52.00;;;;;;5064049;28;1146;-65
2020/12/22 02:58:50;;;;;;;;;;;20.60;51.90;;;;;;5072355;28;1398;-65
2020/12/22 03:01:15;;;;;;;;;;;20.60;52.00;;;;;;5072738;28;1281;-66
2020/12/22 03:03:41;;;;;;;;;;;20.60;52.00;;;;;;5071562;28;1905;-65
2020/12/22 03:06:06;;;;;;;;;;;20.60;52.00;;;;;;5072361;28;1271;-66
2020/12/22 03:08:32;;;;;;;;;;;20.60;52.00;;;;;;5071630;28;1177;-65
2020/12/22 03:10:57;;;;;;;;;;;20.60;52.00;;;;;;5072545;28;1050;-65
2020/12/22 03:13:23;;;;;;;;;;;20.60;52.60;;;;;;5072432;28;1312;-65
2020/12/22 03:15:48;;;;;;;;;;;20.60;52.10;;;;;;5072352;28;1105;-65
2020/12/22 03:18:13;;;;;;;;;;;20.60;52.10;;;;;;5072210;28;1260;-66
2020/12/22 03:20:39;;;;;;;;;;;20.60;52.10;;;;;;5066013;28;1163;-66
2020/12/22 03:23:04;;;;;;;;;;;20.60;52.10;;;;;;5071908;28;1374;-66
2020/12/22 03:25:30;;;;;;;;;;;20.60;52.20;;;;;;5071717;28;1902;-66
2020/12/22 03:27:55;;;;;;;;;;;20.60;52.20;;;;;;5071042;28;1295;-66
2020/12/22 03:30:21;;;;;;;;;;;20.50;52.10;;;;;;5071622;28;1385;-66
2020/12/22 03:32:46;;;;;;;;;;;20.50;52.20;;;;;;5072100;28;1274;-66
2020/12/22 03:35:13;;;;;;;;;;;20.50;52.20;;;;;;5071931;28;1312;-66
2020/12/22 03:37:38;;;;;;;;;;;20.50;52.20;;;;;;5071629;28;1122;-66
2020/12/22 03:40:04;;;;;;;;;;;20.50;52.20;;;;;;5078643;28;1099;-65
2020/12/22 03:42:30;;;;;;;;;;;20.50;52.20;;;;;;5094484;28;1335;-66
2020/12/22 03:44:55;;;;;;;;;;;20.50;52.20;;;;;;5078259;28;1962;-66
2020/12/22 03:47:21;;;;;;;;;;;20.50;52.30;;;;;;5079080;28;1274;-66
2020/12/22 03:49:46;;;;;;;;;;;20.50;52.30;;;;;;5079436;28;1443;-66
2020/12/22 03:52:12;;;;;;;;;;;20.50;52.30;;;;;;5078707;28;1409;-66
2020/12/22 03:54:37;;;;;;;;;;;20.50;52.30;;;;;;5077482;28;1326;-66
2020/12/22 03:57:03;;;;;;;;;;;20.50;52.30;;;;;;5071371;28;1095;-66
2020/12/22 03:59:29;;;;;;;;;;;20.50;52.30;;;;;;5077547;28;1322;-66
2020/12/22 04:01:54;;;;;;;;;;;20.50;52.30;;;;;;5078737;28;1326;-66
2020/12/22 04:04:20;;;;;;;;;;;20.50;52.30;;;;;;5077859;28;1909;-66
2020/12/22 04:06:45;;;;;;;;;;;20.50;52.30;;;;;;5093632;28;1376;-66
2020/12/22 04:09:11;;;;;;;;;;;20.50;52.30;;;;;;5094446;28;1075;-66
2020/12/22 04:11:36;;;;;;;;;;;20.50;52.30;;;;;;5094267;28;1422;-66
2020/12/22 04:14:02;;;;;;;;;;;20.50;52.20;;;;;;5077954;28;1346;-66
2020/12/22 04:16:27;;;;;;;;;;;20.50;52.10;;;;;;5078036;28;1314;-65
2020/12/22 04:18:53;;;;;;;;;;;20.60;52.10;;;;;;5078699;28;1272;-65
2020/12/22 04:21:18;;;;;;;;;;;20.70;52.00;;;;;;5078448;28;1161;-66
2020/12/22 04:23:44;;;;;;;;;;;20.70;51.80;;;;;;5078791;28;1906;-66
2020/12/22 04:26:09;;;;;;;;;;;20.80;51.70;;;;;;5078286;28;1423;-66
2020/12/22 04:28:35;;;;;;;;;;;20.90;51.50;;;;;;5078885;28;1361;-66
2020/12/22 04:31:00;;;;;;;;;;;21.00;51.30;;;;;;5078271;28;1299;-65
2020/12/22 04:33:26;;;;;;;;;;;21.10;51.20;;;;;;5078169;28;1379;-65
2020/12/22 04:35:51;;;;;;;;;;;21.20;51.00;;;;;;5077966;28;1334;-66
2020/12/22 04:38:17;;;;;;;;;;;21.30;50.80;;;;;;5078114;28;1382;-66
2020/12/22 04:40:45;;;;;;;;;;;21.30;50.50;;;;;;5078601;28;1298;-66
2020/12/22 04:43:11;;;;;;;;;;;21.40;50.40;;;;;;5093754;28;1361;-66
2020/12/22 04:45:36;;;;;;;;;;;21.40;50.30;;;;;;5093455;28;1898;-66
2020/12/22 04:48:02;;;;;;;;;;;21.50;50.10;;;;;;5078345;28;1361;-66
2020/12/22 04:50:27;;;;;;;;;;;21.60;50.10;;;;;;5075948;28;1313;-66
2020/12/22 04:52:53;;;;;;;;;;;21.60;49.90;;;;;;5040103;28;1317;-66
2020/12/22 04:55:19;;;;;;;;;;;21.70;49.90;;;;;;5068539;28;1317;-66
2020/12/22 04:57:48;;;;;;;;;;;21.70;49.80;;;;;;5074318;28;1335;-66
2020/12/22 05:00:13;;;;;;;;;;;21.70;49.70;;;;;;5090570;28;1411;-66
2020/12/22 05:02:40;;;;;;;;;;;21.70;49.60;;;;;;5074721;28;1186;-66
2020/12/22 05:05:09;;;;;;;;;;;21.80;49.60;;;;;;5074527;28;1922;-65
2020/12/22 05:07:34;;;;;;;;;;;21.80;49.50;;;;;;5090335;28;1243;-65
2020/12/22 05:10:09;;;;;;;;;;;21.80;49.50;;;;;;5074852;28;1119;-65
2020/12/22 05:12:35;;;;;;;;;;;21.90;49.50;;;;;;5074801;28;1275;-65
2020/12/22 05:15:01;;;;;;;;;;;21.90;49.40;;;;;;5090075;28;1351;-65
2020/12/22 05:17:27;;;;;;;;;;;21.90;49.40;;;;;;5074774;28;1343;-65
2020/12/22 05:19:53;;;;;;;;;;;21.90;49.30;;;;;;5075014;28;1306;-65
2020/12/22 05:22:18;;;;;;;;;;;21.90;49.30;;;;;;5074332;28;1378;-65
2020/12/22 05:24:45;;;;;;;;;;;21.90;49.30;;;;;;5089531;28;1902;-65
2020/12/22 05:27:11;;;;;;;;;;;21.90;49.20;;;;;;5089558;28;1062;-65
2020/12/22 05:29:36;;;;;;;;;;;22.00;49.30;;;;;;5074070;28;1095;-65
2020/12/22 05:32:02;;;;;;;;;;;22.00;49.20;;;;;;5074026;28;1170;-65
2020/12/22 05:34:27;;;;;;;;;;;22.00;49.20;;;;;;5088974;28;1326;-65
2020/12/22 05:36:54;;;;;;;;;;;22.00;49.20;;;;;;5089650;28;1308;-65
2020/12/22 05:39:20;;;;;;;;;;;22.10;49.20;;;;;;5089846;28;1432;-65
2020/12/22 05:41:45;;;;;;;;;;;22.10;49.20;;;;;;5089604;28;991;-65
2020/12/22 05:44:11;;;;;;;;;;;22.10;49.20;;;;;;5073483;28;1934;-65
2020/12/22 05:46:37;;;;;;;;;;;22.10;49.20;;;;;;5089057;28;1425;-65
2020/12/22 05:49:03;;;;;;;;;;;22.10;49.10;;;;;;5074249;28;1381;-65
2020/12/22 05:51:29;;;;;;;;;;;22.10;49.10;;;;;;5056303;28;994;-65
2020/12/22 05:53:55;;;;;;;;;;;22.10;49.20;;;;;;5072243;28;1388;-65
2020/12/22 05:56:24;;;;;;;;;;;22.10;49.10;;;;;;5064735;28;1131;-65
2020/12/22 05:58:50;;;;;;;;;;;22.10;49.10;;;;;;5074053;28;1335;-65
2020/12/22 06:01:26;;;;;;;;;;;22.10;49.20;;;;;;5072129;28;1314;-65
2020/12/22 06:03:52;;;;;;;;;;;22.10;49.20;;;;;;5071871;28;1898;-65
2020/12/22 06:06:17;;;;;;;;;;;22.10;49.20;;;;;;5073312;28;1241;-65
2020/12/22 06:08:43;;;;;;;;;;;22.10;49.20;;;;;;5072504;28;1343;-65
2020/12/22 06:11:08;;;;;;;;;;;22.10;49.20;;;;;;5073832;28;1213;-65
2020/12/22 06:13:34;;;;;;;;;;;22.10;49.30;;;;;;5055525;28;1449;-65
2020/12/22 06:15:59;;;;;;;;;;;22.10;49.40;;;;;;5073026;28;1115;-65
2020/12/22 06:18:25;;;;;;;;;;;22.00;49.30;;;;;;5071927;28;1651;-65
2020/12/22 06:20:50;;;;;;;;;;;22.10;49.40;;;;;;5066768;28;1166;-65
2020/12/22 06:23:18;;;;;;;;;;;22.00;49.40;;;;;;5073394;28;1458;-65
2020/12/22 06:25:43;;;;;;;;;;;22.00;49.50;;;;;;5088908;28;1969;-65
2020/12/22 06:28:16;;;;;;;;;;;22.00;49.50;;;;;;5072815;28;1420;-65
2020/12/22 06:30:41;;;;;;;;;;;22.00;49.60;;;;;;5072990;28;1252;-65
2020/12/22 06:33:33;;;;;;;;;;;21.90;49.60;;;;;;5072652;28;1710;-65
2020/12/22 06:35:58;;;;;;;;;;;21.90;49.60;;;;;;5069910;28;1972;-65
2020/12/22 06:38:43;;;;;;;;;;;21.90;49.70;;;;;;5073305;28;1392;-65
2020/12/22 06:41:08;;;;;;;;;;;21.90;49.70;;;;;;5071711;28;1302;-65
2020/12/22 06:43:40;;;;;;;;;;;21.90;49.80;;;;;;5072103;28;1389;-65
2020/12/22 06:46:24;;;;;;;;;;;21.90;49.80;;;;;;5072670;28;1154;-65
2020/12/22 06:48:50;;;;;;;;;;;21.80;49.80;;;;;;5072363;28;1294;-65
2020/12/22 06:51:34;;;;;;;;;;;21.80;49.90;;;;;;5072286;28;1237;-65
2020/12/22 06:54:11;;;;;;;;;;;21.80;50.00;;;;;;5072302;28;1268;-65
2020/12/22 06:56:50;;;;;;;;;;;21.80;50.00;;;;;;5065327;28;1103;-65
2020/12/22 06:59:38;;;;;;;;;;;21.80;50.10;;;;;;5072237;28;1145;-65
2020/12/22 07:02:04;;;;;;;;;;;21.70;50.10;;;;;;5064471;28;1322;-65
2020/12/22 07:04:38;;;;;;;;;;;21.70;50.10;;;;;;5072071;28;1977;-65
2020/12/22 07:07:04;;;;;;;;;;;21.70;50.20;;;;;;5087907;28;1074;-65
2020/12/22 07:09:30;;;;;;;;;;;21.70;50.20;;;;;;5088107;28;1075;-65
2020/12/22 07:12:07;;;;;;;;;;;21.70;50.90;;;;;;5072519;28;1318;-65
2020/12/22 07:14:32;;;;;;;;;;;21.70;50.30;;;;;;5071340;28;1302;-65
2020/12/22 07:16:59;;;;;;;;;;;21.70;50.40;;;;;;5087731;28;1405;-65
2020/12/22 07:19:28;;;;;;;;;;;21.60;50.40;;;;;;5072179;28;1255;-65
2020/12/22 07:21:57;;;;;;;;;;;21.60;50.40;;;;;;5069597;28;1296;-65
2020/12/22 07:24:23;;;;;;;;;;;21.60;50.50;;;;;;5087626;28;1956;-64
2020/12/22 07:26:48;;;;;;;;;;;21.60;50.50;;;;;;5072094;28;1299;-64
2020/12/22 07:29:13;;;;;;;;;;;21.60;49.80;;;;;;5087692;28;1258;-64
2020/12/22 07:31:40;;;;;;;;;;;21.50;48.70;;;;;;5072447;28;1365;-64
2020/12/22 07:34:06;;;;;;;;;;;21.30;47.20;;;;;;5071818;28;1314;-65
2020/12/22 07:36:32;;;;;;;;;;;21.10;47.70;;;;;;5071903;28;1076;-65
2020/12/22 07:39:17;;;;;;;;;;;21.00;48.30;;;;;;5084805;28;1278;-63
2020/12/22 07:41:43;;;;;;;;;;;20.90;48.70;;;;;;5056555;28;1902;-64
2020/12/22 07:44:18;;;;;;;;;;;21.00;49.00;;;;;;5063663;28;2171;-64
2020/12/22 07:46:44;;;;;;;;;;;20.90;49.10;;;;;;5070877;28;1349;-64
2020/12/22 07:49:10;;;;;;;;;;;21.00;49.30;;;;;;5068394;28;1319;-64
2020/12/22 07:51:36;;;;;;;;;;;21.00;49.40;;;;;;5063082;28;1411;-63
2020/12/22 07:54:02;;;;;;;;;;;21.00;49.50;;;;;;5062547;28;1284;-64
2020/12/22 07:56:27;;;;;;;;;;;21.00;49.50;;;;;;5059914;28;1231;-63
2020/12/22 07:58:53;;;;;;;;;;;21.00;49.60;;;;;;5064764;28;1354;-64
2020/12/22 08:01:18;;;;;;;;;;;21.00;49.70;;;;;;5069894;28;1183;-63
2020/12/22 08:03:44;;;;;;;;;;;21.00;49.70;;;;;;5063114;28;1965;-63
2020/12/22 08:06:10;;;;;;;;;;;21.00;50.60;;;;;;5064189;28;1225;-64
2020/12/22 08:08:36;;;;;;;;;;;21.10;51.30;;;;;;5065488;28;1304;-64
2020/12/22 08:11:02;;;;;;;;;;;21.10;51.10;;;;;;5061193;28;1296;-64
2020/12/22 08:13:29;;;;;;;;;;;21.10;50.80;;;;;;5046559;28;1359;-64
2020/12/22 08:15:54;;;;;;;;;;;21.20;51.10;;;;;;5045724;28;1320;-64
2020/12/22 08:18:20;;;;;;;;;;;21.20;50.90;;;;;;5045186;28;1304;-64
2020/12/22 08:20:45;;;;;;;;;;;21.30;50.90;;;;;;5062232;28;1240;-63
2020/12/22 08:23:11;;;;;;;;;;;21.40;50.90;;;;;;5065336;28;1360;-64
2020/12/22 08:25:36;;;;;;;;;;;21.50;50.90;;;;;;5072146;28;1910;-64
2020/12/22 08:28:02;;;;;;;;;;;21.50;50.70;;;;;;5075243;28;1336;-64
2020/12/22 08:30:29;;;;;;;;;;;21.60;50.70;;;;;;5075373;28;1361;-64
2020/12/22 08:32:54;;;;;;;;;;;21.70;50.70;;;;;;5075117;28;1361;-64
2020/12/22 08:35:20;;;;;;;;;;;21.70;50.60;;;;;;5075209;28;1067;-64
2020/12/22 08:37:45;;;;;;;;;;;21.70;50.50;;;;;;5090864;28;1274;-64
2020/12/22 08:40:24;;;;;;;;;;;21.80;50.50;;;;;;5075470;28;1259;-64
2020/12/22 08:42:49;;;;;;;;;;;21.80;50.40;;;;;;5090891;28;1348;-64
2020/12/22 08:45:15;;;;;;;;;;;21.90;50.40;;;;;;5090426;28;1909;-64
2020/12/22 08:47:49;;;;;;;;;;;21.90;50.50;;;;;;5074746;28;1351;-64
2020/12/22 08:50:14;;;;;;;;;;;21.90;50.40;;;;;;5074616;28;1275;-64
2020/12/22 08:52:40;;;;;;;;;;;21.90;50.40;;;;;;5075224;28;1299;-64
2020/12/22 08:55:10;;;;;;;;;;;21.90;50.40;;;;;;5070123;28;1294;-64
2020/12/22 08:57:35;;;;;;;;;;;22.00;50.40;;;;;;5072691;28;1335;-64
2020/12/22 09:00:13;;;;;;;;;;;22.00;50.40;;;;;;5074798;28;1289;-64
2020/12/22 09:02:41;;;;;;;;;;;22.00;50.40;;;;;;5090486;28;1393;-64
2020/12/22 09:05:15;;;;;;;;;;;22.10;50.40;;;;;;5074289;28;1914;-64
2020/12/22 09:07:41;;;;;;;;;;;22.10;50.40;;;;;;5073925;28;1126;-64
2020/12/22 09:10:07;;;;;;;;;;;22.10;50.50;;;;;;5090066;28;1243;-64
2020/12/22 09:12:32;;;;;;;;;;;22.10;50.50;;;;;;5090156;28;1297;-64
2020/12/22 09:15:01;;;;;;;;;;;22.10;50.50;;;;;;5074025;28;1292;-63
2020/12/22 09:17:27;;;;;;;;;;;22.10;50.50;;;;;;5074503;28;1252;-62
2020/12/22 09:19:52;;;;;;;;;;;22.20;50.60;;;;;;5074201;28;1357;-63
2020/12/22 09:22:21;;;;;;;;;;;22.20;50.60;;;;;;5074890;28;1342;-64
2020/12/22 09:24:50;;;;;;;;;;;22.20;50.70;;;;;;5075835;28;1953;-64
2020/12/22 09:27:16;;;;;;;;;;;22.20;50.70;;;;;;5070998;28;1271;-64
2020/12/22 09:29:41;;;;;;;;;;;22.20;50.70;;;;;;5073055;28;1302;-64
2020/12/22 09:32:09;;;;;;;;;;;22.20;50.70;;;;;;5073514;28;1291;-65
2020/12/22 09:34:34;;;;;;;;;;;22.20;50.70;;;;;;5072931;28;1367;-64
2020/12/22 09:37:01;;;;;;;;;;;22.20;51.00;;;;;;5072697;28;1295;-64
2020/12/22 09:39:27;;;;;;;;;;;22.20;50.80;;;;;;5071921;28;1350;-65
2020/12/22 09:41:53;;;;;;;;;;;22.20;50.80;;;;;;5073354;28;1299;-64
2020/12/22 09:44:18;;;;;;;;;;;22.20;50.90;;;;;;5071048;28;1961;-64
2020/12/22 09:46:47;;;;;;;;;;;22.20;51.00;;;;;;5072486;28;1363;-64
2020/12/22 09:49:12;;;;;;;;;;;22.20;51.00;;;;;;5073121;28;1287;-65
2020/12/22 09:51:38;;;;;;;;;;;22.20;51.10;;;;;;5073065;28;1258;-64
2020/12/22 09:54:03;;;;;;;;;;;22.20;51.00;;;;;;5072021;28;1259;-65
2020/12/22 09:56:32;;;;;;;;;;;22.20;51.10;;;;;;5065395;28;1111;-64
2020/12/22 09:58:58;;;;;;;;;;;22.20;51.10;;;;;;5072623;28;1296;-64
2020/12/22 10:01:24;;;;;;;;;;;22.20;51.10;;;;;;5088964;28;1183;-65
2020/12/22 10:03:49;;;;;;;;;;;22.20;51.10;;;;;;5070428;28;1910;-64
2020/12/22 10:06:18;;;;;;;;;;;22.20;51.10;;;;;;5072379;28;1330;-64
2020/12/22 10:08:43;;;;;;;;;;;22.20;51.80;;;;;;5088245;28;1339;-65
2020/12/22 10:11:09;;;;;;;;;;;22.20;51.20;;;;;;5073025;28;1262;-64
2020/12/22 10:13:35;;;;;;;;;;;22.20;51.20;;;;;;5072216;28;1351;-64
2020/12/22 10:16:04;;;;;;;;;;;22.30;51.30;;;;;;5071743;28;1267;-64
2020/12/22 10:18:29;;;;;;;;;;;22.20;51.20;;;;;;5072180;28;1326;-64
2020/12/22 10:20:54;;;;;;;;;;;22.20;51.30;;;;;;5072669;28;1181;-64
2020/12/22 10:23:20;;;;;;;;;;;22.30;51.40;;;;;;5072380;28;1310;-64
2020/12/22 10:25:45;;;;;;;;;;;22.20;51.50;;;;;;5072238;28;1902;-64
2020/12/22 10:28:11;;;;;;;;;;;22.20;51.90;;;;;;5071807;28;1274;-64
2020/12/22 10:30:36;;;;;;;;;;;22.20;52.20;;;;;;5072352;28;1314;-64
2020/12/22 10:33:02;;;;;;;;;;;22.30;52.10;;;;;;5072085;28;1377;-64
2020/12/22 10:35:27;;;;;;;;;;;22.20;52.10;;;;;;5071842;28;1304;-64
2020/12/22 10:37:53;;;;;;;;;;;22.20;52.00;;;;;;5072173;28;1267;-64
2020/12/22 10:40:18;;;;;;;;;;;22.20;52.10;;;;;;5071808;28;1318;-64
2020/12/22 10:42:43;;;;;;;;;;;22.20;52.10;;;;;;5071531;28;1358;-64
2020/12/22 10:45:09;;;;;;;;;;;22.20;52.10;;;;;;5071255;28;1893;-64
2020/12/22 10:47:34;;;;;;;;;;;22.20;52.20;;;;;;5070988;28;1281;-65
2020/12/22 10:50:00;;;;;;;;;;;22.20;52.20;;;;;;5071222;28;1232;-64
2020/12/22 10:52:25;;;;;;;;;;;22.20;52.20;;;;;;5072031;28;1307;-64
2020/12/22 10:54:51;;;;;;;;;;;22.20;52.40;;;;;;5068991;28;1256;-65
2020/12/22 10:57:16;;;;;;;;;;;22.20;52.40;;;;;;5068341;28;1254;-65
2020/12/22 10:59:42;;;;;;;;;;;22.20;52.30;;;;;;5072747;28;1298;-64
2020/12/22 11:02:07;;;;;;;;;;;22.20;52.40;;;;;;5072511;28;1292;-64
2020/12/22 11:04:33;;;;;;;;;;;22.30;52.30;;;;;;5072334;28;1914;-65
2020/12/22 11:09:24;;;;;;;;;;;22.20;52.30;;;;;;5072792;28;1377;-65
2020/12/22 11:11:49;;;;;;;;;;;22.20;52.20;;;;;;5087744;28;1219;-65
2020/12/22 11:14:15;;;;;;;;;;;22.30;52.30;;;;;;5072386;28;1322;-65
2020/12/22 11:16:40;;;;;;;;;;;22.30;52.20;;;;;;5072190;28;1304;-65
2020/12/22 11:19:06;;;;;;;;;;;22.30;52.30;;;;;;5071724;28;1346;-65
2020/12/22 11:21:31;;;;;;;;;;;22.30;52.30;;;;;;5072416;28;1290;-65
2020/12/22 11:23:57;;;;;;;;;;;22.30;52.50;;;;;;5072032;28;1914;-64
2020/12/22 11:26:22;;;;;;;;;;;22.30;52.50;;;;;;5056571;28;1299;-65
2020/12/22 11:28:48;;;;;;;;;;;22.30;52.40;;;;;;5068353;28;1116;-64
2020/12/22 11:31:14;;;;;;;;;;;22.30;52.30;;;;;;5047632;28;1041;-64
2020/12/22 11:33:42;;;;;;;;;;;22.30;52.30;;;;;;5054077;28;1287;-63
2020/12/22 11:36:11;;;;;;;;;;;22.30;52.30;;;;;;5062214;28;1283;-64
2020/12/22 11:38:37;;;;;;;;;;;22.30;52.30;;;;;;5071273;28;1318;-64
2020/12/22 11:41:03;;;;;;;;;;;22.30;52.30;;;;;;5070392;28;1346;-64
2020/12/22 11:43:28;;;;;;;;;;;22.30;52.50;;;;;;5070442;28;1321;-64
2020/12/22 11:45:53;;;;;;;;;;;22.30;52.40;;;;;;5069855;28;1886;-64
2020/12/22 11:48:19;;;;;;;;;;;22.30;52.40;;;;;;5075179;28;2019;-64
2020/12/22 11:50:44;;;;;;;;;;;22.30;52.40;;;;;;5076453;28;1933;-64
2020/12/22 11:53:10;;;;;;;;;;;22.30;52.40;;;;;;5071408;28;1834;-64
2020/12/22 11:55:35;;;;;;;;;;;22.30;52.40;;;;;;5071511;28;1282;-64
2020/12/22 11:58:01;;;;;;;;;;;22.30;52.40;;;;;;5070517;28;1998;-64
2020/12/22 12:00:26;;;;;;;;;;;22.30;52.40;;;;;;5073163;28;1191;-64
2020/12/22 12:02:52;;;;;;;;;;;22.30;52.70;;;;;;5067464;28;1256;-64
2020/12/22 12:05:17;;;;;;;;;;;22.30;52.60;;;;;;5063003;28;1956;-64
2020/12/22 12:07:42;;;;;;;;;;;22.30;52.60;;;;;;5066085;28;2109;-64
2020/12/22 12:10:08;;;;;;;;;;;22.30;52.60;;;;;;5069252;28;1299;-64
2020/12/22 12:12:33;;;;;;;;;;;22.30;52.60;;;;;;5074450;28;1267;-65
2020/12/22 12:15:01;;;;;;;;;;;22.30;52.70;;;;;;5074444;28;1414;-65
2020/12/22 12:17:26;;;;;;;;;;;22.30;52.80;;;;;;5074934;28;1441;-66
2020/12/22 12:19:52;;;;;;;;;;;22.30;52.90;;;;;;5074517;28;1281;-65
2020/12/22 12:22:17;;;;;;;;;;;22.30;52.90;;;;;;5074126;28;1281;-66
2020/12/22 12:24:43;;;;;;;;;;;22.20;53.00;;;;;;5072976;28;2010;-66
2020/12/22 12:27:08;;;;;;;;;;;22.20;53.40;;;;;;5073203;28;1322;-65
2020/12/22 12:29:33;;;;;;;;;;;22.20;53.40;;;;;;5072470;28;1885;-65
2020/12/22 12:31:59;;;;;;;;;;;22.20;53.50;;;;;;5061955;28;1171;-65
2020/12/22 12:34:24;;;;;;;;;;;22.20;53.60;;;;;;5073412;28;1358;-65
2020/12/22 12:36:53;;;;;;;;;;;22.20;54.20;;;;;;5071054;28;1047;-66
2020/12/22 12:39:19;;;;;;;;;;;22.20;54.20;;;;;;5069773;28;2135;-65
2020/12/22 12:41:47;;;;;;;;;;;22.10;54.20;;;;;;5069461;28;1875;-65
2020/12/22 12:44:12;;;;;;;;;;;22.10;53.80;;;;;;5070431;28;1894;-65
2020/12/22 12:46:37;;;;;;;;;;;22.10;53.60;;;;;;5074953;28;1099;-65
2020/12/22 12:49:03;;;;;;;;;;;22.10;53.70;;;;;;5074565;28;1154;-65
2020/12/22 12:51:30;;;;;;;;;;;22.10;53.80;;;;;;5075038;28;1138;-65
2020/12/22 12:53:55;;;;;;;;;;;22.10;54.50;;;;;;5074877;28;1420;-65
2020/12/22 12:56:21;;;;;;;;;;;22.10;54.50;;;;;;5074537;28;1443;-65
2020/12/22 12:58:47;;;;;;;;;;;22.10;54.50;;;;;;5075016;28;1199;-65
2020/12/22 13:01:12;;;;;;;;;;;22.00;54.60;;;;;;5074684;28;1158;-65
2020/12/22 13:03:41;;;;;;;;;;;22.00;54.70;;;;;;5074264;28;1443;-64
2020/12/22 13:06:07;;;;;;;;;;;22.00;54.70;;;;;;5074127;28;1910;-64
2020/12/22 13:08:33;;;;;;;;;;;22.00;54.90;;;;;;5074669;28;1150;-64
2020/12/22 13:11:01;;;;;;;;;;;22.00;54.70;;;;;;5073574;28;1091;-64
2020/12/22 13:13:27;;;;;;;;;;;21.90;54.60;;;;;;5074235;28;1386;-64
2020/12/22 13:15:52;;;;;;;;;;;21.90;54.70;;;;;;5074440;28;1420;-64
2020/12/22 13:18:18;;;;;;;;;;;21.90;54.90;;;;;;5074713;28;1091;-64
2020/12/22 13:20:43;;;;;;;;;;;21.90;54.70;;;;;;5071995;28;1948;-64
2020/12/22 13:23:09;;;;;;;;;;;21.90;54.80;;;;;;5069606;28;1437;-64
2020/12/22 13:25:34;;;;;;;;;;;21.90;54.80;;;;;;5071657;28;1966;-65
2020/12/22 13:27:59;;;;;;;;;;;21.90;54.80;;;;;;5070069;28;1247;-65
2020/12/22 13:30:25;;;;;;;;;;;21.80;54.90;;;;;;5072900;28;1302;-65
2020/12/22 13:32:50;;;;;;;;;;;21.80;55.00;;;;;;5073194;28;1374;-65
2020/12/22 13:35:16;;;;;;;;;;;21.80;54.90;;;;;;5073694;28;1349;-64
2020/12/22 13:37:41;;;;;;;;;;;21.80;54.80;;;;;;5073374;28;1330;-64
2020/12/22 13:40:07;;;;;;;;;;;21.80;54.90;;;;;;5074007;28;1373;-64
2020/12/22 13:42:32;;;;;;;;;;;21.80;55.00;;;;;;5073959;28;1354;-64
2020/12/22 13:44:58;;;;;;;;;;;21.80;54.90;;;;;;5073301;28;1971;-64
2020/12/22 13:47:23;;;;;;;;;;;21.80;55.00;;;;;;5073103;28;1285;-64
2020/12/22 13:49:49;;;;;;;;;;;21.70;55.00;;;;;;5074342;28;1335;-64
2020/12/22 13:52:14;;;;;;;;;;;21.70;55.00;;;;;;5073493;28;1225;-64
2020/12/22 13:54:40;;;;;;;;;;;21.70;55.00;;;;;;5073806;28;1331;-64
2020/12/22 13:57:05;;;;;;;;;;;21.70;55.00;;;;;;5072747;28;1387;-64
2020/12/22 13:59:31;;;;;;;;;;;21.70;55.00;;;;;;5073567;28;1286;-65
2020/12/22 14:01:56;;;;;;;;;;;21.70;55.00;;;;;;5067001;28;1278;-64
2020/12/22 14:04:22;;;;;;;;;;;21.70;55.20;;;;;;5058027;28;1976;-64
2020/12/22 14:06:47;;;;;;;;;;;21.70;55.20;;;;;;5069944;28;1350;-64
2020/12/22 14:09:13;;;;;;;;;;;21.70;55.20;;;;;;5072679;28;1126;-64
2020/12/22 14:11:38;;;;;;;;;;;21.70;55.40;;;;;;5077113;28;2320;-65
2020/12/22 14:14:04;;;;;;;;;;;21.70;55.30;;;;;;5070138;28;1296;-65
2020/12/22 14:16:30;;;;;;;;;;;21.70;55.30;;;;;;5071742;28;1279;-65
2020/12/22 14:18:55;;;;;;;;;;;21.70;55.30;;;;;;5072481;28;1284;-65
2020/12/22 14:21:21;;;;;;;;;;;21.70;55.40;;;;;;5071106;28;1369;-65
2020/12/22 14:23:47;;;;;;;;;;;21.70;55.40;;;;;;5071965;28;1398;-65
2020/12/22 14:26:12;;;;;;;;;;;21.60;55.30;;;;;;5072511;28;1894;-66
2020/12/22 14:28:39;;;;;;;;;;;21.60;55.40;;;;;;5073572;28;1353;-65